createdAt,value
2022-09-17T00:01:31.266Z,90.46
2022-09-17T00:04:02.111Z,90.41
2022-09-17T00:06:32.511Z,91.75
2022-09-17T00:08:59.567Z,91.52
2022-09-17T00:11:31.459Z,91.54
2022-09-17T00:14:03.080Z,90.19
2022-09-17T00:16:43.872Z,91.27
2022-09-17T00:19:22.991Z,91.78
2022-09-17T00:21:52.198Z,90.19
2022-09-17T00:24:22.859Z,90.30
2022-09-17T00:26:53.883Z,90.40
2022-09-17T00:29:22.934Z,90.54
2022-09-17T00:31:50.251Z,90.53
2022-09-17T00:34:17.523Z,89.53
2022-09-17T00:36:44.532Z,89.91
2022-09-17T00:39:12.823Z,89.30
2022-09-17T00:41:43.640Z,89.17
2022-09-17T00:44:56.570Z,89.37
2022-09-17T00:47:38.856Z,90.63
2022-09-17T00:50:13.081Z,90.94
2022-09-17T00:52:51.527Z,91.59
2022-09-17T00:56:00.243Z,90.47
2022-09-17T00:58:27.529Z,89.68
2022-09-17T01:00:54.578Z,91.11
2022-09-17T01:03:22.622Z,91.95
2022-09-17T01:06:17.395Z,91.99
2022-09-17T01:09:02.376Z,90.67
2022-09-17T01:11:39.212Z,90.97
2022-09-17T01:14:32.511Z,90.75
2022-09-17T01:17:13.207Z,91.73
2022-09-17T01:20:04.634Z,92.43
2022-09-17T01:22:57.198Z,91.14
2022-09-17T01:25:38.435Z,92.24
2022-09-17T01:28:32.791Z,91.82
2022-09-17T01:31:23.764Z,90.98
2022-09-17T01:34:27.489Z,92.27
2022-09-17T01:36:59.027Z,92.38
2022-09-17T01:39:42.988Z,92.16
2022-09-17T01:42:26.094Z,92.15
2022-09-17T01:45:02.274Z,91.46
2022-09-17T01:47:52.458Z,92.72
2022-09-17T01:50:30.459Z,90.93
2022-09-17T01:53:00.381Z,91.34
2022-09-17T01:55:35.707Z,91.97
2022-09-17T01:58:15.374Z,92.72
2022-09-17T02:00:49.092Z,93.25
2022-09-17T02:03:41.662Z,92.92
2022-09-17T02:06:14.554Z,93.52
2022-09-17T02:09:26.051Z,94.26
2022-09-17T02:12:03.688Z,93.93
2022-09-17T02:14:50.367Z,94.39
2022-09-17T02:17:26.998Z,93.75
2022-09-17T02:19:56.121Z,94.37
2022-09-17T02:22:37.270Z,94.82
2022-09-17T02:25:22.397Z,94.39
2022-09-17T02:28:03.755Z,94.60
2022-09-17T02:30:32.121Z,94.80
2022-09-17T02:33:01.926Z,96.14
2022-09-17T02:35:33.060Z,95.97
2022-09-17T02:38:01.083Z,96.48
2022-09-17T02:40:34.109Z,97.09
2022-09-17T02:43:06.708Z,97.14
2022-09-17T02:46:00.028Z,97.29
2022-09-17T02:49:07.274Z,97.43
2022-09-17T02:52:16.473Z,97.07
2022-09-17T02:55:01.188Z,98.73
2022-09-17T02:57:53.574Z,98.15
2022-09-17T03:00:23.229Z,97.94
2022-09-17T03:03:00.368Z,98.06
2022-09-17T03:05:29.668Z,98.83
2022-09-17T03:07:57.495Z,99.01
2022-09-17T03:10:24.601Z,98.71
2022-09-17T03:12:53.866Z,99.17
2022-09-17T03:15:20.725Z,98.79
2022-09-17T03:17:53.262Z,98.80
2022-09-17T03:20:23.638Z,99.01
2022-09-17T03:22:52.511Z,98.89
2022-09-17T03:25:19.380Z,99.46
2022-09-17T03:27:46.339Z,99.09
2022-09-17T03:30:13.363Z,98.66
2022-09-17T03:32:41.303Z,99.19
2022-09-17T03:35:08.516Z,98.81
2022-09-17T03:37:35.452Z,98.71
2022-09-17T03:40:02.818Z,99.46
2022-09-17T03:42:29.959Z,99.34
2022-09-17T03:44:57.247Z,99.48
2022-09-17T03:47:28.179Z,99.14
2022-09-17T03:49:55.719Z,98.79
2022-09-17T03:52:22.702Z,99.09
2022-09-17T03:54:49.631Z,98.78
2022-09-17T03:57:16.976Z,98.52
2022-09-17T03:59:43.861Z,97.71
2022-09-17T04:02:10.871Z,98.58
2022-09-17T04:04:37.895Z,98.76
2022-09-17T04:07:08.662Z,99.02
2022-09-17T04:09:35.590Z,98.75
2022-09-17T04:12:03.104Z,98.82
2022-09-17T04:14:29.995Z,97.32
2022-09-17T04:16:59.051Z,97.49
2022-09-17T04:19:25.942Z,96.00
2022-09-17T04:21:53.110Z,96.95
2022-09-17T04:24:20.286Z,95.80
2022-09-17T04:26:47.324Z,96.15
2022-09-17T04:29:14.234Z,96.87
2022-09-17T04:31:41.193Z,96.54
2022-09-17T04:34:08.278Z,96.15
2022-09-17T04:36:35.394Z,95.96
2022-09-17T04:39:02.260Z,96.24
2022-09-17T04:41:29.107Z,95.81
2022-09-17T04:43:59.108Z,94.27
2022-09-17T04:46:27.050Z,95.13
2022-09-17T04:48:58.350Z,94.71
2022-09-17T04:51:25.287Z,93.41
2022-09-17T04:53:52.168Z,93.74
2022-09-17T04:56:20.675Z,93.04
2022-09-17T04:58:52.747Z,93.64
2022-09-17T05:01:19.737Z,93.35
2022-09-17T05:03:46.793Z,94.37
2022-09-17T05:06:20.763Z,95.31
2022-09-17T05:08:47.667Z,95.87
2022-09-17T05:11:14.784Z,96.40
2022-09-17T05:13:41.706Z,96.75
2022-09-17T05:16:10.749Z,96.80
2022-09-17T05:18:37.712Z,97.16
2022-09-17T05:21:05.315Z,97.25
2022-09-17T05:23:32.202Z,97.02
2022-09-17T05:26:02.575Z,96.87
2022-09-17T05:28:31.555Z,97.64
2022-09-17T05:31:05.593Z,98.74
2022-09-17T05:33:32.706Z,100.00
2022-09-17T05:36:00.071Z,100.00
2022-09-17T05:38:30.313Z,100.00
2022-09-17T05:40:57.355Z,100.00
2022-09-17T05:43:24.284Z,100.00
2022-09-17T05:45:51.760Z,100.00
2022-09-17T05:48:22.779Z,100.00
2022-09-17T05:50:50.738Z,100.00
2022-09-17T05:53:20.802Z,100.00
2022-09-17T05:55:47.736Z,100.00
2022-09-17T05:58:18.601Z,99.57
2022-09-17T06:00:48.744Z,99.64
2022-09-17T06:03:24.875Z,98.64
2022-09-17T06:05:58.311Z,99.19
2022-09-17T06:08:36.831Z,99.18
2022-09-17T06:11:08.422Z,99.36
2022-09-17T06:13:35.947Z,100.00
2022-09-17T06:16:03.978Z,99.19
2022-09-17T06:18:32.222Z,100.00
2022-09-17T06:21:05.525Z,99.67
2022-09-17T06:23:37.152Z,98.61
2022-09-17T06:26:06.403Z,99.04
2022-09-17T06:28:36.721Z,98.75
2022-09-17T06:31:10.595Z,99.54
2022-09-17T06:33:39.772Z,100.00
2022-09-17T06:36:13.892Z,99.43
2022-09-17T06:38:42.817Z,99.01
2022-09-17T06:41:11.101Z,98.99
2022-09-17T06:43:40.247Z,98.46
2022-09-17T06:46:09.052Z,97.83
2022-09-17T06:48:37.708Z,97.19
2022-09-17T06:51:08.910Z,97.74
2022-09-17T06:53:38.783Z,97.44
2022-09-17T06:56:08.437Z,97.66
2022-09-17T06:58:37.446Z,96.54
2022-09-17T07:01:06.057Z,97.31
2022-09-17T07:03:33.689Z,96.24
2022-09-17T07:06:00.932Z,96.20
2022-09-17T07:08:28.063Z,96.01
2022-09-17T07:10:59.148Z,94.79
2022-09-17T07:13:27.335Z,94.56
2022-09-17T07:16:05.398Z,91.70
2022-09-17T07:18:33.781Z,91.83
2022-09-17T07:21:03.893Z,91.82
2022-09-17T07:23:35.066Z,91.91
2022-09-17T07:26:06.720Z,90.79
2022-09-17T07:28:39.027Z,90.05
2022-09-17T07:31:13.733Z,89.42
2022-09-17T07:33:42.393Z,87.81
2022-09-17T07:36:15.016Z,88.31
2022-09-17T07:38:41.954Z,88.65
2022-09-17T07:41:15.734Z,86.65
2022-09-17T07:43:43.798Z,85.86
2022-09-17T07:46:18.723Z,86.68
2022-09-17T07:48:46.884Z,87.61
2022-09-17T07:51:25.883Z,87.75
2022-09-17T07:53:55.410Z,87.79
2022-09-17T07:56:23.852Z,89.37
2022-09-17T07:58:51.878Z,88.26
2022-09-17T08:01:21.188Z,88.35
2022-09-17T08:03:54.235Z,86.77
2022-09-17T08:06:28.358Z,86.25
2022-09-17T08:08:57.264Z,86.56
2022-09-17T08:11:57.147Z,86.97
2022-09-17T08:14:16.093Z,84.66
2022-09-17T08:16:43.187Z,85.94
2022-09-17T08:19:10.868Z,86.22
2022-09-17T08:21:39.860Z,84.64
2022-09-17T08:24:07.148Z,84.83
2022-09-17T08:26:34.220Z,84.13
2022-09-17T08:29:02.532Z,86.09
2022-09-17T08:31:38.826Z,83.86
2022-09-17T08:34:09.883Z,82.53
2022-09-17T08:36:39.018Z,83.27
2022-09-17T08:39:06.025Z,83.97
2022-09-17T08:42:18.136Z,82.03
2022-09-17T08:44:49.871Z,80.11
2022-09-17T08:47:37.863Z,79.32
2022-09-17T08:50:08.338Z,81.37
2022-09-17T08:53:23.369Z,79.12
2022-09-17T08:56:16.181Z,77.01
2022-09-17T08:59:08.227Z,75.86
2022-09-17T09:01:43.472Z,76.92
2022-09-17T09:04:36.835Z,75.83
2022-09-17T09:07:19.687Z,76.26
2022-09-17T09:10:23.378Z,76.51
2022-09-17T09:12:53.182Z,75.17
2022-09-17T09:15:43.679Z,75.02
2022-09-17T09:18:19.538Z,76.32
2022-09-17T09:21:07.261Z,72.67
2022-09-17T09:23:58.525Z,72.39
2022-09-17T09:26:58.724Z,73.40
2022-09-17T09:29:46.311Z,72.57
2022-09-17T09:32:53.371Z,71.72
2022-09-17T09:35:25.463Z,72.17
2022-09-17T09:38:14.962Z,71.11
2022-09-17T09:40:52.324Z,69.04
2022-09-17T09:44:02.781Z,71.38
2022-09-17T09:47:26.343Z,71.90
2022-09-17T09:50:23.314Z,70.61
2022-09-17T09:53:35.842Z,71.71
2022-09-17T09:56:37.431Z,69.67
2022-09-17T09:59:08.671Z,70.84
2022-09-17T10:01:42.455Z,68.81
2022-09-17T10:04:23.534Z,68.47
2022-09-17T10:06:54.873Z,69.72
2022-09-17T10:09:22.697Z,68.93
2022-09-17T10:12:05.219Z,70.54
2022-09-17T10:14:38.355Z,69.90
2022-09-17T10:17:21.649Z,70.75
2022-09-17T10:20:07.794Z,71.92
2022-09-17T10:22:36.694Z,72.70
2022-09-17T10:25:32.033Z,71.12
2022-09-17T10:28:41.121Z,73.56
2022-09-17T10:31:12.321Z,78.20
2022-09-17T10:34:01.940Z,77.59
2022-09-17T10:36:42.905Z,80.63
2022-09-17T10:39:44.503Z,80.43
2022-09-17T10:42:11.415Z,77.75
2022-09-17T10:44:56.795Z,77.13
2022-09-17T10:47:30.058Z,72.03
2022-09-17T10:50:32.326Z,73.72
2022-09-17T10:53:05.008Z,74.25
2022-09-17T10:56:17.518Z,75.07
2022-09-17T10:59:22.424Z,76.63
2022-09-17T11:03:01.725Z,75.79
2022-09-17T11:05:49.251Z,75.56
2022-09-17T11:08:59.344Z,75.49
2022-09-17T11:12:15.717Z,74.72
2022-09-17T11:15:03.677Z,76.42
2022-09-17T11:18:21.493Z,75.13
2022-09-17T11:21:03.378Z,74.91
2022-09-17T11:24:05.628Z,76.04
2022-09-17T11:27:19.718Z,82.55
2022-09-17T11:29:55.935Z,90.52
2022-09-17T11:33:01.727Z,99.77
2022-09-17T11:35:36.124Z,100.00
2022-09-17T11:38:20.627Z,100.00
2022-09-17T11:41:04.242Z,100.00
2022-09-17T11:43:37.970Z,100.00
2022-09-17T11:46:43.929Z,100.00
2022-09-17T11:50:00.016Z,99.68
2022-09-17T11:52:37.999Z,100.00
2022-09-17T11:55:46.706Z,100.00
2022-09-17T11:58:43.970Z,100.00
2022-09-17T12:01:30.621Z,100.00
2022-09-17T12:04:05.655Z,100.00
2022-09-17T12:07:17.526Z,99.88
2022-09-17T12:09:54.875Z,100.00
2022-09-17T12:12:48.554Z,97.82
2022-09-17T12:15:35.025Z,96.80
2022-09-17T12:18:32.322Z,96.14
2022-09-17T12:21:04.513Z,96.51
2022-09-17T12:23:42.023Z,97.58
2022-09-17T12:26:34.499Z,94.20
2022-09-17T12:29:28.735Z,93.90
2022-09-17T12:32:38.136Z,90.75
2022-09-17T12:36:04.364Z,92.21
2022-09-17T12:39:21.566Z,88.85
2022-09-17T12:42:15.261Z,90.42
2022-09-17T12:45:16.081Z,87.14
2022-09-17T12:48:20.105Z,85.09
2022-09-17T12:51:43.246Z,86.72
2022-09-17T12:54:28.571Z,83.58
2022-09-17T12:57:26.282Z,86.64
2022-09-17T13:00:22.939Z,82.99
2022-09-17T13:03:12.655Z,82.58
2022-09-17T13:06:31.742Z,84.49
2022-09-17T13:09:48.081Z,83.86
2022-09-17T13:12:26.959Z,82.94
2022-09-17T13:15:42.265Z,83.42
2022-09-17T13:18:34.628Z,81.71
2022-09-17T13:21:24.355Z,82.87
2022-09-17T13:23:53.687Z,81.41
2022-09-17T13:26:34.239Z,82.73
2022-09-17T13:29:01.955Z,83.28
2022-09-17T13:31:34.993Z,82.83
2022-09-17T13:34:03.628Z,75.94
2022-09-17T13:36:38.269Z,70.71
2022-09-17T13:39:08.937Z,71.64
2022-09-17T13:41:40.822Z,69.70
2022-09-17T13:44:10.197Z,71.40
2022-09-17T13:46:40.435Z,72.43
2022-09-17T13:49:15.978Z,74.68
2022-09-17T13:51:45.935Z,72.34
2022-09-17T13:54:16.837Z,74.78
2022-09-17T13:57:09.532Z,74.63
2022-09-17T13:59:37.976Z,75.62
2022-09-17T14:02:28.705Z,77.08
2022-09-17T14:05:33.007Z,73.27
2022-09-17T14:08:13.511Z,73.69
2022-09-17T14:10:44.479Z,74.38
2022-09-17T14:13:36.560Z,72.20
2022-09-17T14:16:28.585Z,72.84
2022-09-17T14:19:24.094Z,71.64
2022-09-17T14:22:06.679Z,72.65
2022-09-17T14:24:52.515Z,69.83
2022-09-17T14:27:42.529Z,70.02
2022-09-17T14:30:39.699Z,74.11
2022-09-17T14:33:18.886Z,74.06
2022-09-17T14:35:54.504Z,68.70
2022-09-17T14:38:37.104Z,69.79
2022-09-17T14:41:25.879Z,69.46
2022-09-17T14:44:01.270Z,70.04
2022-09-17T14:46:34.080Z,68.69
2022-09-17T14:49:29.626Z,69.11
2022-09-17T14:51:59.104Z,70.10
2022-09-17T14:54:43.709Z,71.36
2022-09-17T14:57:10.539Z,69.74
2022-09-17T15:00:00.056Z,70.27
2022-09-17T15:02:41.269Z,70.62
2022-09-17T15:05:35.488Z,71.20
2022-09-17T15:08:21.267Z,71.90
2022-09-17T15:11:01.001Z,72.53
2022-09-17T15:13:41.560Z,71.85
2022-09-17T15:16:27.679Z,70.86
2022-09-17T15:19:04.250Z,73.15
2022-09-17T15:21:44.275Z,72.06
2022-09-17T15:24:35.054Z,70.39
2022-09-17T15:27:23.456Z,69.75
2022-09-17T15:30:00.288Z,71.74
2022-09-17T15:32:27.697Z,70.07
2022-09-17T15:35:13.607Z,71.56
2022-09-17T15:38:22.738Z,71.82
2022-09-17T15:40:50.708Z,72.19
2022-09-17T15:43:30.736Z,72.13
2022-09-17T15:46:20.213Z,74.92
2022-09-17T15:48:47.229Z,76.88
2022-09-17T15:51:27.778Z,82.02
2022-09-17T15:54:29.301Z,86.13
2022-09-17T15:57:01.167Z,88.31
2022-09-17T15:59:34.077Z,90.93
2022-09-17T16:02:02.487Z,90.60
2022-09-17T16:04:34.579Z,88.04
2022-09-17T16:07:27.949Z,87.04
2022-09-17T16:09:55.149Z,88.05
2022-09-17T16:12:26.634Z,89.05
2022-09-17T16:14:58.060Z,89.08
2022-09-17T16:17:47.497Z,88.87
2022-09-17T16:20:23.577Z,89.97
2022-09-17T16:22:53.509Z,87.96
2022-09-17T16:25:27.438Z,86.27
2022-09-17T16:28:10.912Z,85.27
2022-09-17T16:30:48.459Z,86.62
2022-09-17T16:33:17.977Z,85.08
2022-09-17T16:35:45.191Z,85.25
2022-09-17T16:38:13.206Z,85.27
2022-09-17T16:40:43.107Z,84.97
2022-09-17T16:43:10.800Z,85.78
2022-09-17T16:45:42.927Z,84.38
2022-09-17T16:48:10.897Z,86.11
2022-09-17T16:50:41.419Z,86.00
2022-09-17T16:53:08.436Z,86.26
2022-09-17T16:55:35.324Z,87.38
2022-09-17T16:58:02.315Z,86.23
2022-09-17T17:00:32.436Z,87.99
2022-09-17T17:03:03.226Z,86.46
2022-09-17T17:05:31.171Z,86.30
2022-09-17T17:07:58.136Z,85.89
2022-09-17T17:10:26.644Z,85.16
2022-09-17T17:12:53.756Z,86.09
2022-09-17T17:15:21.761Z,87.39
2022-09-17T17:17:48.738Z,85.99
2022-09-17T17:20:16.858Z,85.80
2022-09-17T17:22:44.798Z,85.07
2022-09-17T17:25:14.079Z,84.39
2022-09-17T17:27:41.618Z,85.86
2022-09-17T17:30:16.500Z,85.60
2022-09-17T17:32:51.170Z,86.10
2022-09-17T17:35:19.298Z,87.02
2022-09-17T17:37:47.463Z,86.62
2022-09-17T17:40:14.711Z,86.69
2022-09-17T17:42:44.251Z,87.27
2022-09-17T17:45:11.679Z,86.98
2022-09-17T17:47:38.561Z,87.31
2022-09-17T17:50:06.140Z,88.56
2022-09-17T17:52:33.204Z,92.56
2022-09-17T17:55:00.111Z,96.38
2022-09-17T17:57:27.098Z,98.31
2022-09-17T17:59:54.048Z,98.60
2022-09-17T18:02:21.149Z,99.78
2022-09-17T18:04:48.151Z,99.33
2022-09-17T18:07:15.139Z,96.29
2022-09-17T18:09:42.077Z,93.96
2022-09-17T18:12:09.213Z,94.66
2022-09-17T18:14:36.130Z,93.54
2022-09-17T18:17:03.057Z,92.35
2022-09-17T18:19:29.987Z,92.33
2022-09-17T18:21:56.880Z,91.71
2022-09-17T18:24:23.917Z,92.75
2022-09-17T18:26:50.960Z,95.22
2022-09-17T18:29:18.014Z,94.53
2022-09-17T18:31:45.264Z,96.11
2022-09-17T18:34:16.911Z,95.86
2022-09-17T18:36:50.781Z,97.38
2022-09-17T18:39:57.334Z,98.28
2022-09-17T18:42:06.494Z,97.57
2022-09-17T18:44:33.513Z,97.47
2022-09-17T18:47:00.564Z,97.13
2022-09-17T18:49:27.689Z,96.17
2022-09-17T18:52:00.737Z,96.18
2022-09-17T18:54:32.807Z,97.00
2022-09-17T18:57:04.833Z,97.50
2022-09-17T18:59:31.918Z,98.28
2022-09-17T19:01:58.830Z,98.22
2022-09-17T19:04:28.203Z,98.47
2022-09-17T19:06:55.738Z,99.02
2022-09-17T19:09:29.740Z,99.07
2022-09-17T19:11:56.589Z,98.57
2022-09-17T19:14:23.501Z,99.51
2022-09-17T19:16:50.403Z,99.03
2022-09-17T19:19:18.422Z,100.00
2022-09-17T19:21:45.313Z,100.00
2022-09-17T19:24:12.299Z,100.00
2022-09-17T19:26:39.479Z,100.00
2022-09-17T19:29:11.452Z,100.00
2022-09-17T19:31:38.521Z,100.00
2022-09-17T19:34:05.486Z,100.00
2022-09-17T19:36:32.421Z,100.00
2022-09-17T19:39:01.434Z,100.00
2022-09-17T19:41:28.441Z,100.00
2022-09-17T19:43:58.772Z,100.00
2022-09-17T19:46:26.796Z,100.00
2022-09-17T19:48:56.538Z,100.00
2022-09-17T19:51:28.380Z,100.00
2022-09-17T19:53:55.747Z,100.00
2022-09-17T19:56:26.126Z,100.00
2022-09-17T19:58:53.439Z,100.00
2022-09-17T20:01:20.820Z,100.00
2022-09-17T20:03:58.942Z,100.00
2022-09-17T20:06:27.287Z,100.00
2022-09-17T20:08:55.223Z,100.00
2022-09-17T20:11:24.734Z,100.00
2022-09-17T20:14:03.346Z,100.00
2022-09-17T20:16:30.797Z,99.28
2022-09-17T20:18:59.448Z,100.00
2022-09-17T20:21:29.455Z,100.00
2022-09-17T20:23:57.638Z,100.00
2022-09-17T20:26:28.436Z,100.00
2022-09-17T20:28:55.494Z,100.00
2022-09-17T20:31:28.563Z,100.00
2022-09-17T20:33:58.876Z,100.00
2022-09-17T20:36:33.354Z,100.00
2022-09-17T20:39:17.944Z,100.00
2022-09-17T20:41:48.239Z,100.00
2022-09-17T20:44:15.194Z,100.00
2022-09-17T20:46:43.160Z,100.00
2022-09-17T20:49:10.207Z,100.00
2022-09-17T20:51:37.067Z,100.00
2022-09-17T20:54:04.465Z,100.00
2022-09-17T20:56:34.143Z,100.00
2022-09-17T20:59:09.444Z,100.00
2022-09-17T21:01:37.813Z,100.00
2022-09-17T21:04:08.606Z,100.00
2022-09-17T21:06:38.892Z,100.00
2022-09-17T21:09:06.351Z,100.00
2022-09-17T21:11:34.606Z,100.00
2022-09-17T21:14:04.550Z,100.00
2022-09-17T21:16:31.601Z,100.00
2022-09-17T21:19:05.147Z,100.00
2022-09-17T21:21:34.560Z,100.00
2022-09-17T21:24:07.713Z,100.00
2022-09-17T21:26:35.110Z,100.00
2022-09-17T21:29:03.256Z,100.00
2022-09-17T21:31:33.789Z,100.00
2022-09-17T21:34:05.519Z,100.00
2022-09-17T21:36:36.609Z,100.00
2022-09-17T21:39:07.919Z,100.00
2022-09-17T21:41:41.612Z,100.00
2022-09-17T21:44:11.603Z,100.00
2022-09-17T21:46:39.392Z,100.00
2022-09-17T21:49:06.719Z,100.00
2022-09-17T21:51:42.318Z,100.00
2022-09-17T21:54:13.148Z,100.00
2022-09-17T21:56:40.144Z,100.00
2022-09-17T21:59:11.243Z,100.00
2022-09-17T22:01:46.028Z,100.00
2022-09-17T22:04:17.508Z,100.00
2022-09-17T22:06:47.557Z,100.00
2022-09-17T22:09:25.672Z,100.00
2022-09-17T22:11:53.570Z,100.00
2022-09-17T22:14:24.475Z,100.00
2022-09-17T22:16:55.171Z,100.00
2022-09-17T22:19:23.964Z,100.00
2022-09-17T22:21:53.922Z,100.00
2022-09-17T22:24:24.227Z,99.86
2022-09-17T22:26:57.442Z,99.94
2022-09-17T22:29:31.611Z,99.59
2022-09-17T22:31:58.843Z,98.90
2022-09-17T22:34:26.441Z,98.94
2022-09-17T22:36:53.335Z,99.06
2022-09-17T22:39:25.416Z,98.88
2022-09-17T22:41:54.671Z,99.18
2022-09-17T22:44:26.776Z,97.92
2022-09-17T22:46:53.845Z,98.44
2022-09-17T22:49:24.876Z,98.05
2022-09-17T22:51:52.201Z,96.62
2022-09-17T22:54:19.388Z,96.72
2022-09-17T22:56:49.067Z,96.56
2022-09-17T22:59:18.015Z,96.97
2022-09-17T23:01:45.065Z,96.55
2022-09-17T23:04:18.031Z,95.64
2022-09-17T23:06:44.968Z,96.22
2022-09-17T23:09:13.932Z,95.87
2022-09-17T23:11:43.044Z,96.79
2022-09-17T23:14:12.637Z,96.79
2022-09-17T23:16:43.933Z,96.93
2022-09-17T23:19:13.067Z,97.42
2022-09-17T23:21:43.266Z,97.84
2022-09-17T23:24:16.782Z,96.53
2022-09-17T23:26:43.668Z,94.97
2022-09-17T23:29:11.020Z,95.89
2022-09-17T23:31:38.351Z,97.17
2022-09-17T23:34:08.278Z,96.68
2022-09-17T23:36:39.564Z,97.62
2022-09-17T23:39:10.412Z,97.39
2022-09-17T23:41:43.335Z,97.79
2022-09-17T23:44:16.065Z,96.96
2022-09-17T23:46:45.772Z,98.90
2022-09-17T23:49:14.812Z,99.32
2022-09-17T23:51:42.516Z,98.92
2022-09-17T23:54:09.543Z,97.22
2022-09-17T23:56:36.859Z,97.28
2022-09-17T23:59:05.057Z,97.37
